*** Het weer in Zoersel & omstreken... Achter de schermen zijn we druk in de weer om deze website een grondige make-over te geven! Nog even geduld dus! ***

*** BELANGRIJK BERICHT 03/06/2019: Vanwege een storing bij Weather Underground, werken de realtime grafieken en weerrapporten voor onbepaalde duur niet meer. Er wordt naar een oplossing gezocht! ***


Weerstation Zoersel Live Webcam Weerstation Zoersel Live Webcam


sateliet wolkenradar  


Doneren

CBI


onweer radar meer informatie blitzortung!


regen radar  rain snow radar


Enkele sfeerfotootjes...  

Het weer levert geen direct gevaar op.    Er zijn geen waarschuwingen afgegeven.

metar rapporten vliegvelden

   
EBAW - Antwerp
gewijzigd: 27-06-2019 14:20
helder  
helder  
   wind: nno 14,8 km/h
wind: nno 14,8 km/h
temperatuur: 23°C
dauwpunt: 10°C
vochtigheid: 44%
barometer: 1028 hPa
zicht: meer dan 10 km
bewolking: helder
EBAW 271220Z 03008KT 360V060 CAVOK 23/10 Q1028 NOSIG
EBLG - Li├Ęge
gewijzigd: 27-06-2019 14:50
helder  
helder  
   wind: nno 18,5 km/h
wind: nno 18,5 km/h
temperatuur: 24°C
dauwpunt: 11°C
vochtigheid: 44%
barometer: 1027 hPa
zicht: meer dan 10 km
bewolking: helder
EBLG 271250Z 03010KT 010V070 CAVOK 24/11 Q1027 NOSIG
EBCV - Mons/Bergen
gewijzigd: 27-06-2019 14:55
helder  
helder  
   wind: no 16,7 km/h
wind: no 16,7 km/h
temperatuur: 24°C
dauwpunt: 15°C
vochtigheid: 57%
barometer: 1027 hPa
bewolking: helder
zicht: meer dan 10 km
bewolking: helder
EBCV 271255Z AUTO 05009KT 9999 NCD 24/15 Q1027 BLU
EHBK - Maastricht
gewijzigd: 27-06-2019 14:55
helder  
helder  
   wind: nno 16,7 km/h
wind: nno 16,7 km/h
temperatuur: 25°C
dauwpunt: 10°C
vochtigheid: 39%
barometer: 1027 hPa
bewolking: helder
zicht: meer dan 10 km
bewolking: helder
EHBK 271255Z AUTO 02009KT 340V070 9999 NCD 25/10 Q1027 NOSIG
ELLX - Luxemburg
gewijzigd: 27-06-2019 14:50
helder  
helder  
   wind: nno 22,2 km/h
wind: nno 22,2 km/h
temperatuur: 30°C
dauwpunt: 14°C
vochtigheid: 38%
barometer: 1025 hPa
zicht: meer dan 10 km
bewolking: helder
ELLX 271250Z 03012KT 360V070 CAVOK 30/14 Q1025 NOSIG
EBOS - Oostende
gewijzigd: 27-06-2019 14:50
licht bewolkt  
licht bewolkt  
   wind: no 33,3 km/h
wind: no 33,3 km/h
temperatuur: 19°C
dauwpunt: 13°C
vochtigheid: 68%
barometer: 1029 hPa
bewolking: licht bewolkt
zicht: meer dan 10 km
bewolking: licht bewolkt 2500 ft
EBOS 271250Z 04018KT 9999 FEW025 19/13 Q1029 NOSIG

script ontwikkeld door  Saratoga-weather.org aangepast voor de template door  Weerstation Leuven